ケアンズ の空港の天気 - METARとTAF

ケアンズ国際空港 ( YBCS / CNS ) - オーストラリア クイーンズランド州ケアンズ
飛行場実況気象(Metar)
観測時間02/18 09:00 AEST (02/17 23:00 UTC)
風向・風速西 3m/s
視程10km以上
天気現象
全天の4割程度の雲 雲底高度 850m
気温29℃
湿度74%
気圧1011hPa
METARYBCS 172300Z AUTO 26005KT 210V290 9999 // SCT028 29/24 Q1011 NOSIG
過去の天気等 Google飛行場航空写真 Wunderground天気予報

過去48時間のMETAR

飛行場予報(TAF)
発表時間: 2/18 03:12 AEST (2/17 17:12 UTC)
予報対象時間: 18日4時 AEST ~ 19日4時 AEST
風向・風速不定 3m/s
視程10km以上
天気現象弱いしゅう雨
少しの雲 雲底高度 670m
全天の8割程度の雲 雲底高度 910m
18日12時 AEST から
風向・風速北東 6m/s
視程10km以上
全天の4割程度の雲 雲底高度 760m
18日18時 AEST から
風向・風速不定 3m/s
視程10km以上
全天の4割程度の雲 雲底高度 670m
TAF YBCS 171712Z 1718/1818 VRB05KT 9999 -SHRA FEW022 BKN030
FM180200 04012KT 9999 SCT025
FM180800 VRB05KT 9999 SCT022